Time;durP1;ratioP1;P1;durP2;ratioP2;P2;SDS_P1;SDS_P2;PMS_P1;PMS_P2;Temp;Humidity;BMP_temperature;BMP_pressure;BME280_temperature;BME280_humidity;BME280_pressure;Samples;Min_cycle;Max_cycle;Signal;HPM_P1;HPM_P2
2022/01/07 00:04:39;;;;;;;1999.90;999.90;;;;;;;1.44;70.95;101370.69;15543045;28;20464;-64
2022/01/07 00:12:12;;;;;;;1999.90;999.90;;;;;;;1.39;70.49;101363.22;15528010;28;20093;-65
2022/01/07 00:19:46;;;;;;;1999.90;999.90;;;;;;;1.27;71.34;101359.78;15553433;28;20034;-66
2022/01/07 00:27:19;;;;;;;1999.90;999.90;;;;;;;1.20;71.23;101366.53;15544692;28;20042;-65
2022/01/07 00:34:53;;;;;;;1999.90;999.90;;;;;;;1.22;71.76;101364.38;15545268;28;20504;-63
2022/01/07 00:42:26;;;;;;;1999.90;999.90;;;;;;;1.20;70.58;101361.88;15515320;28;20507;-65
2022/01/07 00:50:00;;;;;;;1999.90;999.90;;;;;;;1.12;71.81;101367.81;15537397;28;20066;-64
2022/01/07 00:57:33;;;;;;;1999.90;999.90;;;;;;;1.14;71.42;101352.72;15541405;28;20046;-64
2022/01/07 01:05:10;;;;;;;1999.90;999.90;;;;;;;0.96;72.66;101349.47;15515998;28;20507;-65
2022/01/07 01:12:44;;;;;;;1999.90;999.90;;;;;;;1.01;71.87;101352.25;15538913;28;20050;-63
2022/01/07 01:20:19;;;;;;;1999.90;999.90;;;;;;;1.02;72.00;101354.75;15518149;28;20065;-64
2022/01/07 01:27:52;;;;;;;1999.90;999.90;;;;;;;0.86;73.00;101337.25;15551641;28;20145;-64
2022/01/07 01:35:27;;;;;;;;;;;;;;;1.16;72.67;101341.50;15554548;28;20414;-63
2022/01/07 01:43:00;;;;;;;1999.90;999.90;;;;;;;0.82;74.74;101321.50;15586597;28;19928;-64
2022/01/07 01:50:35;;;;;;;1999.90;999.90;;;;;;;0.86;74.46;101307.00;15523897;28;20046;-64
2022/01/07 01:58:07;;;;;;;1999.90;999.90;;;;;;;0.86;75.46;101286.94;15551959;28;20056;-63
2022/01/07 02:05:41;;;;;;;1999.90;999.90;;;;;;;1.11;75.01;101290.00;15532362;28;20535;-62
2022/01/07 02:13:15;;;;;;;1999.90;999.90;;;;;;;1.31;73.72;101278.41;15534005;28;20491;-64
2022/01/07 02:20:49;;;;;;;1999.90;999.90;;;;;;;1.17;74.24;101277.16;15544110;28;20089;-63
2022/01/07 02:28:22;;;;;;;1999.90;999.90;;;;;;;1.00;74.28;101274.47;15505707;28;20049;-63
2022/01/07 02:35:56;;;;;;;1999.90;999.90;;;;;;;0.99;74.72;101245.34;15523499;28;20046;-63
2022/01/07 02:43:29;;;;;;;1999.90;999.90;;;;;;;0.97;74.38;101247.53;15506253;28;20479;-62
2022/01/07 02:51:03;;;;;;;1999.90;999.90;;;;;;;1.05;74.03;101241.56;15527178;28;20056;-62
2022/01/07 02:58:36;;;;;;;1999.90;999.90;;;;;;;0.98;74.47;101242.84;15534534;28;20039;-63
2022/01/07 03:06:10;;;;;;;1999.90;999.90;;;;;;;1.04;74.38;101239.06;15521370;28;20034;-64
2022/01/07 03:13:44;;;;;;;1999.90;999.90;;;;;;;0.94;74.68;101226.06;15593500;28;20077;-64
2022/01/07 03:21:18;;;;;;;1999.90;999.90;;;;;;;0.97;74.44;101239.28;15543379;28;20034;-64
2022/01/07 03:28:51;;;;;;;1999.90;999.90;;;;;;;0.88;74.63;101216.06;15561554;28;20046;-64
2022/01/07 03:36:25;;;;;;;1999.90;999.90;;;;;;;0.82;74.75;101206.09;15552358;28;20066;-64
2022/01/07 03:43:57;;;;;;;1999.90;999.90;;;;;;;0.88;75.44;101204.25;15524707;28;20385;-64
2022/01/07 03:51:31;;;;;;;1999.90;999.90;;;;;;;1.13;74.18;101196.28;15519119;28;20046;-64
2022/01/07 03:59:04;;;;;;;1999.90;999.90;;;;;;;1.23;73.63;101188.16;15525682;28;20054;-64
2022/01/07 04:06:38;;;;;;;1999.90;999.90;;;;;;;1.31;73.16;101189.59;15547707;28;20080;-64
2022/01/07 04:14:11;;;;;;;1999.90;999.90;;;;;;;1.21;73.65;101184.00;15545789;28;20046;-64
2022/01/07 04:21:47;;;;;;;1999.90;999.90;;;;;;;1.14;73.66;101174.03;15545211;28;20082;-65
2022/01/07 04:29:20;;;;;;;1999.90;999.90;;;;;;;1.36;73.42;101165.75;15526678;28;20459;-64
2022/01/07 04:36:54;;;;;;;1999.90;999.90;;;;;;;1.20;74.00;101152.94;15544695;28;20045;-65
2022/01/07 04:44:27;;;;;;;1999.90;999.90;;;;;;;1.41;73.34;101145.69;15522106;28;20062;-64
2022/01/07 04:52:02;;;;;;;1999.90;999.90;;;;;;;1.33;73.10;101136.00;15547196;28;20043;-65
2022/01/07 04:59:34;;;;;;;1999.90;999.90;;;;;;;1.30;73.22;101128.28;15528971;28;20487;-63
2022/01/07 05:07:08;;;;;;;1999.90;999.90;;;;;;;1.32;73.77;101112.34;15547494;28;20053;-65
2022/01/07 05:14:41;;;;;;;1999.90;999.90;;;;;;;1.20;73.43;101108.13;15572223;28;20050;-64
2022/01/07 05:22:15;;;;;;;1999.90;999.90;;;;;;;1.41;73.08;101101.69;15580973;28;20416;-65
2022/01/07 05:29:48;;;;;;;1999.90;999.90;;;;;;;1.36;73.01;101091.50;15550102;28;20363;-64
2022/01/07 05:37:22;;;;;;;1999.90;999.90;;;;;;;1.39;72.82;101084.63;15519063;28;20444;-65
2022/01/07 05:44:57;;;;;;;1999.90;999.90;;;;;;;1.41;73.05;101068.69;15540201;28;20041;-63
2022/01/07 05:52:32;;;;;;;1999.90;999.90;;;;;;;1.24;73.28;101055.09;15558583;28;20111;-65
2022/01/07 06:00:07;;;;;;;1999.90;999.90;;;;;;;1.49;72.43;101042.63;15540279;28;20129;-64
2022/01/07 06:07:46;;;;;;;1999.90;999.90;;;;;;;1.51;72.46;101048.69;15537547;28;20054;-64
2022/01/07 06:15:19;;;;;;;1999.90;999.90;;;;;;;1.42;72.70;101031.84;15552791;28;20046;-65
2022/01/07 06:22:53;;;;;;;1999.90;999.90;;;;;;;1.42;72.88;101029.94;15517477;28;20054;-64
2022/01/07 06:30:26;;;;;;;1999.90;999.90;;;;;;;1.32;73.04;101027.09;15579962;28;20137;-65
2022/01/07 06:38:00;;;;;;;1999.90;999.90;;;;;;;1.50;72.89;101025.03;15561471;28;20064;-64
2022/01/07 06:45:33;;;;;;;1999.90;999.90;;;;;;;1.51;72.96;101035.78;15553594;28;20164;-64
2022/01/07 06:53:07;;;;;;;1999.90;999.90;;;;;;;1.34;73.45;101033.16;15559497;28;20050;-64
2022/01/07 07:00:40;;;;;;;1999.90;999.90;;;;;;;1.57;72.56;101020.16;15564519;28;20045;-65
2022/01/07 07:08:14;;;;;;;1999.90;999.90;;;;;;;1.47;73.41;101020.91;15570744;28;20042;-66
2022/01/07 07:15:46;;;;;;;1999.90;999.90;;;;;;;1.44;73.41;101024.16;15566169;28;20044;-65
2022/01/07 07:23:20;;;;;;;1999.90;999.90;;;;;;;1.73;72.22;101016.38;15593843;28;20049;-64
2022/01/07 07:30:57;;;;;;;1999.90;999.90;;;;;;;1.53;72.88;101013.50;15562448;28;20070;-65
2022/01/07 07:38:31;;;;;;;1999.90;999.90;;;;;;;1.49;73.50;100991.22;15572396;28;20124;-64
2022/01/07 07:46:04;;;;;;;1999.90;999.90;;;;;;;1.88;71.99;100983.44;15610414;28;20049;-65
2022/01/07 07:53:39;;;;;;;1999.90;999.90;;;;;;;2.03;71.88;100986.25;15579542;28;20042;-64
2022/01/07 08:01:12;;;;;;;1999.90;999.90;;;;;;;2.01;71.84;100982.94;15567110;28;20065;-65
2022/01/07 08:08:47;;;;;;;1999.90;999.90;;;;;;;2.03;71.85;100977.16;15624848;28;20052;-66
2022/01/07 08:16:23;;;;;;;1999.90;999.90;;;;;;;2.16;71.44;100956.53;15628494;28;20042;-65
2022/01/07 08:23:59;;;;;;;1999.90;999.90;;;;;;;2.42;70.85;100954.69;15609806;28;20037;-64
2022/01/07 08:39:35;;;;;;;1999.90;999.90;;;;;;;2.56;70.74;100944.78;15544243;28;20081;-63
2022/01/07 08:47:07;;;;;;;1999.90;999.90;;;;;;;2.52;70.85;100940.94;15547762;28;20058;-65
2022/01/07 08:54:42;;;;;;;1999.90;999.90;;;;;;;2.74;70.32;100929.63;15561699;28;20048;-65
2022/01/07 09:02:14;;;;;;;1999.90;999.90;;;;;;;2.67;70.68;100929.91;15544685;28;20296;-64
2022/01/07 09:09:48;;;;;;;1999.90;999.90;;;;;;;3.29;69.22;100923.22;15562306;28;20073;-66
2022/01/07 09:17:21;;;;;;;1999.90;999.90;;;;;;;3.29;69.03;100911.38;15522955;28;20054;-60
2022/01/07 09:24:55;;;;;;;1999.90;999.90;;;;;;;3.58;68.76;100917.91;15499536;28;20064;-60
2022/01/07 09:32:28;;;;;;;1999.90;999.90;;;;;;;3.33;69.22;100905.00;15510793;28;20141;-63
2022/01/07 09:40:02;;;;;;;1999.90;999.90;;;;;;;3.68;68.73;100915.09;15561256;28;20046;-59
2022/01/07 09:47:34;;;;;;;1999.90;999.90;;;;;;;4.28;67.00;100912.31;15579977;28;20049;-61
2022/01/07 09:55:10;;;;;;;1999.90;999.90;;;;;;;6.09;62.26;100898.84;15555201;28;20038;-67
2022/01/07 10:03:01;;;;;;;1999.90;999.90;;;;;;;5.65;62.56;100893.59;15539309;28;20418;-60
2022/01/07 10:10:35;;;;;;;1999.90;999.90;;;;;;;6.35;60.85;100891.78;15567011;28;20116;-65
2022/01/07 10:18:10;;;;;;;1999.90;999.90;;;;;;;6.58;59.41;100878.16;15596604;28;20041;-64
2022/01/07 10:25:45;;;;;;;1999.90;999.90;;;;;;;5.23;63.28;100870.28;15553547;28;20049;-60
2022/01/07 10:33:21;;;;;;;1999.90;999.90;;;;;;;5.17;63.68;100861.19;15554507;28;20056;-61
2022/01/07 10:40:59;;;;;;;1999.90;999.90;;;;;;;5.17;63.63;100855.66;15574279;28;20124;-62
2022/01/07 10:48:37;;;;;;;1999.90;999.90;;;;;;;4.89;64.07;100845.44;15618241;28;20041;-62
2022/01/07 10:56:14;;;;;;;1999.90;999.90;;;;;;;4.90;65.07;100838.81;15616797;28;20038;-65
2022/01/07 11:03:47;;;;;;;1999.90;999.90;;;;;;;4.75;64.48;100834.25;15611460;28;20055;-64
2022/01/07 11:11:22;;;;;;;1999.90;999.90;;;;;;;4.93;64.75;100830.75;15618016;28;20446;-65
2022/01/07 11:18:57;;;;;;;1999.90;999.90;;;;;;;4.96;64.89;100826.56;15617158;28;20038;-65
2022/01/07 11:26:31;;;;;;;1999.90;999.90;;;;;;;4.84;64.89;100826.97;15574070;28;20104;-65
2022/01/07 11:34:26;;;;;;;1999.90;999.90;;;;;;;5.05;65.30;100810.16;15547906;28;20049;-65
2022/01/07 11:42:03;;;;;;;1999.90;999.90;;;;;;;5.26;65.18;100814.34;15563939;28;20446;-64
2022/01/07 11:49:37;;;;;;;1999.90;999.90;;;;;;;4.60;66.61;100802.06;15566303;28;20168;-64
2022/01/07 11:57:11;;;;;;;;;;;;;;;5.02;66.78;100799.69;15566696;28;20050;-63
2022/01/07 12:04:44;;;;;;;1999.90;999.90;;;;;;;4.97;67.25;100788.69;15562798;28;19983;-64
2022/01/07 12:12:20;;;;;;;1999.90;999.90;;;;;;;4.91;67.13;100787.94;15564442;28;20521;-64
2022/01/07 12:20:22;;;;;;;1999.90;999.90;;;;;;;5.16;66.74;100772.97;15562544;28;20052;-64
2022/01/07 12:28:07;;;;;;;1999.90;999.90;;;;;;;5.01;66.74;100767.63;15547763;28;20470;-64
2022/01/07 12:35:42;;;;;;;1999.90;999.90;;;;;;;4.99;68.55;100764.31;15585440;28;20072;-66
2022/01/07 12:43:16;;;;;;;1999.90;999.90;;;;;;;4.90;69.03;100759.47;15602155;28;20053;-65
2022/01/07 12:50:48;;;;;;;1999.90;999.90;;;;;;;4.61;70.57;100748.44;15569903;28;20038;-64
2022/01/07 12:58:28;;;;;;;1999.90;999.90;;;;;;;4.63;72.03;100737.91;15578954;28;20038;-70
2022/01/07 13:06:05;;;;;;;1999.90;999.90;;;;;;;4.50;72.80;100729.50;15552102;28;20407;-63
2022/01/07 13:13:39;;;;;;;1999.90;999.90;;;;;;;4.73;71.67;100733.38;15591150;28;20048;-65
2022/01/07 13:21:15;;;;;;;1999.90;999.90;;;;;;;4.60;72.84;100727.44;15549109;28;20038;-65
2022/01/07 13:28:51;;;;;;;1999.90;999.90;;;;;;;4.18;74.62;100727.31;15561550;28;20104;-64
2022/01/07 13:36:36;;;;;;;1999.90;999.90;;;;;;;4.06;75.73;100722.16;15571597;28;20446;-68
2022/01/07 13:44:10;;;;;;;1999.90;999.90;;;;;;;3.89;76.44;100716.25;15572306;28;20053;-68
2022/01/07 13:51:51;;;;;;;1999.90;999.90;;;;;;;3.97;76.42;100708.16;15583969;28;20510;-70
2022/01/07 13:59:26;;;;;;;1999.90;999.90;;;;;;;3.91;76.81;100703.78;15601370;28;20037;-68
2022/01/07 14:07:00;;;;;;;1999.90;999.90;;;;;;;3.92;76.67;100708.19;15572895;28;20059;-66
2022/01/07 14:14:39;;;;;;;1999.90;999.90;;;;;;;4.18;76.75;100708.81;15581248;28;20091;-63
2022/01/07 14:22:12;;;;;;;1999.90;999.90;;;;;;;3.81;78.22;100727.88;15563915;28;20055;-66
2022/01/07 14:29:46;;;;;;;1999.90;999.90;;;;;;;3.82;78.63;100724.84;15591836;28;20145;-64
2022/01/07 14:37:19;;;;;;;1999.90;999.90;;;;;;;3.73;79.26;100726.56;15583107;28;20415;-64
2022/01/07 14:44:54;;;;;;;1999.90;999.90;;;;;;;3.68;79.30;100724.66;15562917;28;20037;-65
2022/01/07 14:52:26;;;;;;;1999.90;999.90;;;;;;;3.62;79.76;100719.47;15575092;28;20054;-66
2022/01/07 15:00:01;;;;;;;1999.90;999.90;;;;;;;3.55;80.07;100713.47;15574096;28;20042;-63
2022/01/07 15:07:33;;;;;;;1999.90;999.90;;;;;;;3.53;79.70;100705.44;15580968;28;20160;-64
2022/01/07 15:23:04;;;;;;;1999.90;999.90;;;;;;;3.59;79.85;100720.88;15593524;28;20053;-63
2022/01/07 15:30:38;;;;;;;1999.90;999.90;;;;;;;3.70;79.39;100716.09;15603073;28;20046;-64
2022/01/07 15:38:11;;;;;;;1999.90;999.90;;;;;;;3.80;79.04;100712.44;15595970;28;20063;-65
2022/01/07 15:45:45;;;;;;;1999.90;999.90;;;;;;;3.79;79.19;100708.03;15589687;28;20044;-65
2022/01/07 15:53:17;;;;;;;1999.90;999.90;;;;;;;3.75;78.99;100716.06;15600552;28;20049;-66
2022/01/07 16:00:51;;;;;;;1999.90;999.90;;;;;;;3.82;78.85;100705.50;15579183;28;20030;-63
2022/01/07 16:08:25;;;;;;;1999.90;999.90;;;;;;;3.86;78.73;100711.31;15581146;28;20046;-66
2022/01/07 16:15:59;;;;;;;1999.90;999.90;;;;;;;4.00;78.36;100709.53;15569373;28;20049;-65
2022/01/07 16:23:32;;;;;;;1999.90;999.90;;;;;;;3.84;78.75;100705.22;15590168;28;20041;-64
2022/01/07 16:31:07;;;;;;;1999.90;999.90;;;;;;;3.98;78.45;100707.06;15571533;28;20411;-66
2022/01/07 16:38:40;;;;;;;1999.90;999.90;;;;;;;4.19;77.64;100709.63;15610219;28;20128;-65
2022/01/07 16:46:16;;;;;;;1999.90;999.90;;;;;;;4.07;78.25;100709.19;15587505;28;20046;-66
2022/01/07 16:53:59;;;;;;;1999.90;999.90;;;;;;;3.86;79.05;100708.53;15585035;28;20049;-65
2022/01/07 17:01:33;;;;;;;1999.90;999.90;;;;;;;4.10;78.05;100714.13;15562886;28;20060;-64
2022/01/07 17:09:08;;;;;;;1999.90;999.90;;;;;;;4.07;77.66;100714.72;15573231;28;20372;-66
2022/01/07 17:16:42;;;;;;;1999.90;999.90;;;;;;;4.05;77.86;100717.75;15562423;28;20052;-65
2022/01/07 17:24:15;;;;;;;1999.90;999.90;;;;;;;4.13;77.58;100714.34;15558167;28;20054;-65
2022/01/07 17:31:50;;;;;;;1999.90;999.90;;;;;;;4.24;77.41;100726.13;15559744;28;20072;-65
2022/01/07 17:39:22;;;;;;;1999.90;999.90;;;;;;;3.95;77.96;100712.31;15559817;28;20049;-63
2022/01/07 17:46:56;;;;;;;1999.90;999.90;;;;;;;4.01;78.40;100713.91;15559630;28;20121;-65
2022/01/07 17:54:29;;;;;;;1999.90;999.90;;;;;;;4.03;77.89;100726.31;15563860;28;20537;-64
2022/01/07 18:02:04;;;;;;;1999.90;999.90;;;;;;;4.25;77.48;100716.72;15617794;28;20568;-65
2022/01/07 18:09:37;;;;;;;1999.90;999.90;;;;;;;4.11;78.39;100713.00;15540952;28;20050;-67
2022/01/07 18:17:11;;;;;;;1999.90;999.90;;;;;;;4.10;77.77;100714.13;15495476;28;20042;-64
2022/01/07 18:24:45;;;;;;;1999.90;999.90;;;;;;;4.13;77.83;100708.84;15509895;28;20050;-66
2022/01/07 18:32:20;;;;;;;1999.90;999.90;;;;;;;4.04;78.23;100697.59;15553619;28;20045;-64
2022/01/07 18:39:53;;;;;;;1999.90;999.90;;;;;;;4.25;77.50;100698.22;15553862;28;20124;-64
2022/01/07 18:47:28;;;;;;;1999.90;999.90;;;;;;;4.32;77.20;100675.78;15553920;28;20038;-69
2022/01/07 18:55:02;;;;;;;1999.90;999.90;;;;;;;4.41;77.39;100678.75;15517733;28;20074;-66
2022/01/07 19:02:36;;;;;;;1999.90;999.90;;;;;;;4.57;77.20;100680.19;15524398;28;20129;-61
2022/01/07 19:10:10;;;;;;;1999.90;999.90;;;;;;;4.35;77.39;100677.97;15527134;28;20045;-60
2022/01/07 19:17:45;;;;;;;1999.90;999.90;;;;;;;4.43;76.58;100655.22;15519947;28;20446;-63
2022/01/07 19:25:19;;;;;;;1999.90;999.90;;;;;;;4.74;75.86;100652.91;15495220;28;20050;-63
2022/01/07 19:32:53;;;;;;;1999.90;999.90;;;;;;;4.56;75.76;100648.16;15521654;28;20037;-60
2022/01/07 19:40:27;;;;;;;1999.90;999.90;;;;;;;4.54;76.05;100648.47;15552795;28;20820;-62
2022/01/07 19:48:02;;;;;;;1999.90;999.90;;;;;;;4.55;75.67;100652.03;15544814;28;20038;-61
2022/01/07 19:55:36;;;;;;;1999.90;999.90;;;;;;;4.38;76.36;100658.06;15563364;28;20077;-64
2022/01/07 20:03:10;;;;;;;1999.90;999.90;;;;;;;4.49;75.38;100645.78;15560094;28;20038;-63
2022/01/07 20:10:43;;;;;;;1999.90;999.90;;;;;;;4.24;75.98;100646.84;15512725;28;20104;-65
2022/01/07 20:18:17;;;;;;;1999.90;999.90;;;;;;;4.40;75.47;100636.47;15556199;28;20500;-63
2022/01/07 20:25:51;;;;;;;1999.90;999.90;;;;;;;4.28;75.90;100634.13;15556774;28;20296;-61
2022/01/07 20:33:25;;;;;;;;;;;;;;;4.22;75.53;100635.28;15549011;28;20054;-64
2022/01/07 20:40:58;;;;;;;1999.90;999.90;;;;;;;4.12;76.23;100629.88;15547119;28;19940;-64
2022/01/07 20:48:32;;;;;;;1999.90;999.90;;;;;;;4.18;76.08;100634.22;15552794;28;20048;-64
2022/01/07 20:56:05;;;;;;;1999.90;999.90;;;;;;;3.88;76.13;100624.31;15542403;28;20482;-65
2022/01/07 21:03:42;;;;;;;1999.90;999.90;;;;;;;4.07;75.82;100627.16;15540567;28;20042;-63
2022/01/07 21:11:14;;;;;;;1999.90;999.90;;;;;;;3.98;75.63;100626.16;15525644;28;20038;-65
2022/01/07 21:18:49;;;;;;;1999.90;999.90;;;;;;;3.98;76.06;100620.63;15514523;28;20052;-68
2022/01/07 21:26:22;;;;;;;1999.90;999.90;;;;;;;3.87;75.60;100632.91;15588232;28;20521;-68
2022/01/07 21:33:56;;;;;;;1999.90;999.90;;;;;;;4.09;75.61;100627.69;15544165;28;20471;-65
2022/01/07 21:41:28;;;;;;;1999.90;999.90;;;;;;;4.02;74.97;100619.75;15522417;28;20121;-64
2022/01/07 21:49:05;;;;;;;1999.90;999.90;;;;;;;3.77;75.61;100617.25;15535821;28;20054;-65
2022/01/07 21:56:38;;;;;;;1999.90;999.90;;;;;;;3.91;75.42;100607.16;15552670;28;20148;-64
2022/01/07 22:04:14;;;;;;;1999.90;999.90;;;;;;;3.66;75.98;100601.91;15595393;28;20299;-64
2022/01/07 22:11:47;;;;;;;1999.90;999.90;;;;;;;3.77;75.79;100606.22;15513658;28;20300;-64
2022/01/07 22:19:21;;;;;;;1999.90;999.90;;;;;;;3.69;75.72;100610.41;15531141;28;20038;-65
2022/01/07 22:26:55;;;;;;;1999.90;999.90;;;;;;;3.80;75.48;100594.56;15533540;28;20042;-64
2022/01/07 22:34:29;;;;;;;1999.90;999.90;;;;;;;3.57;75.86;100601.69;15518510;28;20046;-64
2022/01/07 22:42:02;;;;;;;1999.90;999.90;;;;;;;3.65;75.74;100587.28;15551863;28;20104;-63
2022/01/07 22:49:36;;;;;;;1999.90;999.90;;;;;;;3.42;76.11;100580.56;15515957;28;20042;-64
2022/01/07 22:57:09;;;;;;;1999.90;999.90;;;;;;;3.40;75.94;100582.78;15578245;28;20480;-64
2022/01/07 23:04:43;;;;;;;1999.90;999.90;;;;;;;3.59;75.21;100582.09;15517572;28;20305;-65
2022/01/07 23:12:16;;;;;;;1999.90;999.90;;;;;;;3.31;75.90;100575.41;15524224;28;20043;-65
2022/01/07 23:19:50;;;;;;;1999.90;999.90;;;;;;;3.57;75.04;100584.31;15523031;28;20073;-64
2022/01/07 23:27:23;;;;;;;1999.90;999.90;;;;;;;3.50;75.11;100576.34;15540852;28;20069;-65
2022/01/07 23:34:57;;;;;;;1999.90;999.90;;;;;;;3.66;75.15;100568.78;15524985;28;20427;-63
2022/01/07 23:42:30;;;;;;;1999.90;999.90;;;;;;;3.45;76.34;100566.22;15544089;28;20049;-64
2022/01/07 23:50:05;;;;;;;;;;;;;;;3.67;76.29;100556.63;15594547;28;20046;-64
2022/01/07 23:57:38;;;;;;;1999.90;999.90;;;;;;;3.28;77.97;100557.53;15589642;28;19921;-65
